Time;durP1;ratioP1;P1;durP2;ratioP2;P2;SDS_P1;SDS_P2;PMS_P1;PMS_P2;Temp;Humidity;BMP_temperature;BMP_pressure;BME280_temperature;BME280_humidity;BME280_pressure;Samples;Min_cycle;Max_cycle;Signal;HPM_P1;HPM_P2
2023/10/02 04:04:42;;;;;;;0.30;0.30;;;11.60;99.90;;;;;;6247702;22;20223;-64
2023/10/02 04:07:08;;;;;;;0.30;0.30;;;11.60;99.90;;;;;;5071304;28;20241;-63
2023/10/02 04:09:36;;;;;;;0.30;0.30;;;11.60;99.90;;;;;;5073822;28;20538;-64
2023/10/02 04:12:04;;;;;;;0.30;0.20;;;11.50;99.90;;;;;;5073786;28;20180;-64
2023/10/02 04:14:33;;;;;;;0.30;0.30;;;11.50;99.90;;;;;;5073343;28;20503;-63
2023/10/02 04:19:48;;;;;;;0.30;0.30;;;11.50;99.90;;;;;;5073904;28;20170;-64
2023/10/02 04:22:19;;;;;;;0.30;0.30;;;11.60;99.90;;;;;;5073717;28;20177;-64
2023/10/02 04:24:58;;;;;;;0.40;0.40;;;11.50;99.90;;;;;;5073102;28;20205;-64
2023/10/02 04:27:25;;;;;;;0.30;0.30;;;11.50;99.90;;;;;;5073655;28;20400;-64
2023/10/02 04:30:21;;;;;;;0.30;0.30;;;11.60;99.90;;;;;;5073544;28;20201;-62
2023/10/02 04:32:51;;;;;;;0.30;0.30;;;11.50;99.90;;;;;;5073543;28;20177;-63
2023/10/02 04:38:09;;;;;;;0.30;0.20;;;11.40;99.90;;;;;;5073807;28;20209;-63
2023/10/02 04:40:51;;;;;;;0.30;0.30;;;11.40;99.90;;;;;;5073720;28;20182;-65
2023/10/02 04:43:25;;;;;;;0.30;0.30;;;11.30;99.90;;;;;;5073317;28;20680;-65
2023/10/02 04:46:08;;;;;;;0.40;0.40;;;11.40;99.90;;;;;;5072958;28;20219;-63
2023/10/02 04:48:42;;;;;;;0.30;0.30;;;11.30;99.90;;;;;;5073382;28;20176;-63
2023/10/02 04:51:11;;;;;;;0.30;0.30;;;11.30;99.90;;;;;;5073404;28;20533;-62
2023/10/02 04:53:39;;;;;;;0.30;0.30;;;11.30;99.90;;;;;;5072971;28;20406;-64
2023/10/02 04:56:21;;;;;;;0.40;0.40;;;11.30;99.90;;;;;;5073274;28;20208;-61
2023/10/02 04:58:51;;;;;;;0.30;0.30;;;11.30;99.90;;;;;;5073097;28;20260;-64
2023/10/02 05:01:34;;;;;;;0.30;0.30;;;11.30;99.90;;;;;;5072909;28;20259;-64
2023/10/02 05:04:04;;;;;;;0.30;0.30;;;11.30;99.90;;;;;;5072832;28;20185;-65
2023/10/02 05:06:44;;;;;;;0.30;0.30;;;11.20;99.90;;;;;;5072814;28;20205;-63
2023/10/02 05:14:28;;;;;;;0.30;0.30;;;11.20;99.90;;;;;;5072884;28;20552;-62
2023/10/02 05:17:16;;;;;;;0.30;0.30;;;11.20;99.90;;;;;;5072903;28;20192;-65
2023/10/02 05:20:03;;;;;;;0.30;0.30;;;11.20;99.90;;;;;;5073178;28;20593;-64
2023/10/02 05:22:31;;;;;;;0.40;0.40;;;11.20;99.90;;;;;;5072807;28;20177;-61
2023/10/02 05:25:04;;;;;;;0.30;0.30;;;11.20;99.90;;;;;;5068986;28;20662;-63
2023/10/02 05:27:31;;;;;;;0.40;0.40;;;11.20;99.90;;;;;;5062641;28;20712;-64
2023/10/02 05:30:05;;;;;;;0.30;0.30;;;11.20;99.90;;;;;;5071501;28;20250;-65
2023/10/02 05:32:35;;;;;;;0.30;0.30;;;11.30;99.90;;;;;;5071970;28;20626;-65
2023/10/02 05:37:43;;;;;;;0.37;0.37;;;11.30;99.90;;;;;;5075559;28;20208;-62
2023/10/02 05:45:47;;;;;;;0.30;0.20;;;11.30;99.90;;;;;;5056055;28;20210;-62
2023/10/02 05:50:59;;;;;;;0.30;0.30;;;11.40;99.90;;;;;;5056304;28;20181;-63
2023/10/02 05:53:29;;;;;;;0.30;0.30;;;11.40;99.90;;;;;;5063996;28;20169;-64
2023/10/02 05:56:05;;;;;;;0.30;0.30;;;11.50;99.90;;;;;;5075932;28;20589;-63
2023/10/02 05:58:32;;;;;;;0.30;0.30;;;11.50;99.90;;;;;;5076251;28;20260;-66
2023/10/02 06:01:06;;;;;;;0.33;0.33;;;11.60;99.90;;;;;;5074854;28;20185;-66
2023/10/02 06:03:34;;;;;;;0.73;0.73;;;11.70;99.90;;;;;;5075680;28;20396;-63
2023/10/02 06:06:17;;;;;;;1.90;1.80;;;11.80;99.90;;;;;;5075267;28;20494;-61
2023/10/02 06:09:12;;;;;;;0.30;0.30;;;11.90;99.90;;;;;;5075879;28;20441;-65
2023/10/02 06:11:59;;;;;;;0.30;0.30;;;12.00;99.90;;;;;;5076106;28;20574;-64
2023/10/02 06:14:25;;;;;;;0.30;0.30;;;12.10;99.90;;;;;;5075332;28;20418;-62
2023/10/02 06:16:52;;;;;;;0.30;0.30;;;12.10;99.90;;;;;;5075604;28;20487;-66
2023/10/02 06:19:19;;;;;;;0.30;0.30;;;12.20;99.90;;;;;;5075652;28;20470;-62
2023/10/02 06:21:47;;;;;;;0.30;0.30;;;12.20;99.90;;;;;;5062100;28;20427;-66
2023/10/02 06:24:17;;;;;;;0.30;0.20;;;12.30;99.90;;;;;;5059619;28;20464;-65
2023/10/02 06:26:52;;;;;;;0.30;0.30;;;12.50;99.90;;;;;;5057354;28;20585;-65
2023/10/02 06:29:25;;;;;;;0.30;0.30;;;12.60;99.90;;;;;;5075653;28;20805;-65
2023/10/02 06:31:58;;;;;;;0.30;0.30;;;13.00;99.90;;;;;;5075442;28;20388;-63
2023/10/02 06:34:47;;;;;;;0.30;0.30;;;13.20;99.90;;;;;;5071291;28;20929;-65
2023/10/02 06:37:17;;;;;;;0.30;0.30;;;13.50;99.90;;;;;;5055362;28;20833;-63
2023/10/02 06:40:02;;;;;;;0.30;0.30;;;13.70;99.90;;;;;;5055225;28;20407;-63
2023/10/02 06:42:28;;;;;;;0.30;0.20;;;13.80;99.90;;;;;;5058635;28;20431;-65
2023/10/02 06:44:54;;;;;;;0.30;0.20;;;13.90;99.90;;;;;;5072522;28;20983;-63
2023/10/02 06:47:22;;;;;;;0.30;0.20;;;14.00;99.90;;;;;;5075100;28;20415;-65
2023/10/02 06:49:52;;;;;;;0.30;0.30;;;14.10;99.90;;;;;;5070808;28;20179;-63
2023/10/02 06:52:19;;;;;;;0.30;0.30;;;14.10;99.90;;;;;;5063478;28;20526;-65
2023/10/02 06:54:48;;;;;;;0.30;0.30;;;14.20;99.90;;;;;;5036495;28;20944;-64
2023/10/02 06:57:18;;;;;;;0.40;0.40;;;14.40;99.90;;;;;;5054942;28;20487;-68
2023/10/02 06:59:54;;;;;;;0.30;0.20;;;14.70;99.90;;;;;;5054930;28;20413;-65
2023/10/02 07:02:23;;;;;;;0.30;0.30;;;15.20;99.90;;;;;;5070967;28;20526;-65
2023/10/02 07:04:52;;;;;;;1.00;0.70;;;16.00;99.90;;;;;;5053041;28;20463;-64
2023/10/02 07:07:26;;;;;;;0.30;0.20;;;17.00;99.90;;;;;;5054438;28;20422;-64
2023/10/02 07:10:10;;;;;;;0.70;0.70;;;17.80;99.90;;;;;;5054689;28;20858;-64
2023/10/02 07:12:40;;;;;;;0.47;0.47;;;18.80;99.90;;;;;;5054647;28;20398;-61
2023/10/02 07:15:13;;;;;;;0.37;0.37;;;19.60;99.90;;;;;;5055422;28;20814;-65
2023/10/02 07:17:48;;;;;;;0.50;0.50;;;20.50;99.90;;;;;;5054572;28;20398;-64
2023/10/02 07:20:20;;;;;;;0.40;0.40;;;21.00;99.90;;;;;;5054328;28;20502;-62
2023/10/02 07:22:48;;;;;;;0.57;0.57;;;21.50;99.90;;;;;;5054320;28;20411;-62
2023/10/02 07:25:24;;;;;;;0.30;0.27;;;22.10;99.90;;;;;;5053647;28;20467;-68
2023/10/02 07:27:50;;;;;;;1.20;1.20;;;22.60;98.00;;;;;;5036320;28;20256;-63
2023/10/02 07:30:26;;;;;;;0.30;0.30;;;22.90;98.10;;;;;;5064275;28;20769;-66
2023/10/02 07:32:54;;;;;;;0.57;0.57;;;23.20;98.00;;;;;;5054015;28;20472;-64
2023/10/02 07:35:23;;;;;;;0.50;0.50;;;23.30;97.10;;;;;;5053465;28;20447;-64
2023/10/02 07:37:58;;;;;;;0.50;0.50;;;23.50;97.00;;;;;;5053989;28;20381;-67
2023/10/02 07:40:46;;;;;;;0.43;0.43;;;23.80;96.90;;;;;;5053874;28;20417;-64
2023/10/02 07:43:18;;;;;;;0.47;0.47;;;24.30;96.30;;;;;;5039741;28;20386;-68
2023/10/02 07:46:01;;;;;;;1.23;0.60;;;24.80;94.40;;;;;;5063213;28;20458;-64
2023/10/02 07:48:30;;;;;;;0.40;0.40;;;25.40;94.90;;;;;;5073850;28;20790;-64
2023/10/02 07:50:58;;;;;;;0.47;0.47;;;26.00;92.90;;;;;;5056823;28;20462;-65
2023/10/02 07:53:38;;;;;;;0.90;0.60;;;26.20;93.00;;;;;;5053684;28;20394;-69
2023/10/02 07:56:06;;;;;;;0.40;0.30;;;26.30;92.30;;;;;;5052329;28;20460;-68
2023/10/02 07:58:33;;;;;;;0.40;0.40;;;26.50;92.50;;;;;;5054117;28;20502;-69
2023/10/02 08:01:06;;;;;;;0.37;0.37;;;27.10;91.60;;;;;;5073462;28;20924;-63
2023/10/02 08:03:34;;;;;;;1.30;0.50;;;27.50;91.20;;;;;;5060158;28;20401;-68
2023/10/02 08:06:20;;;;;;;0.40;0.40;;;27.90;90.50;;;;;;5035033;28;20517;-62
2023/10/02 08:08:47;;;;;;;0.50;0.40;;;28.00;89.60;;;;;;5053520;28;20404;-67
2023/10/02 08:11:12;;;;;;;0.80;0.80;;;28.20;89.10;;;;;;5059225;28;20386;-63
2023/10/02 08:13:48;;;;;;;0.60;0.60;;;28.30;87.90;;;;;;5072858;28;20381;-63
2023/10/02 08:16:17;;;;;;;0.60;0.60;;;28.20;87.80;;;;;;5073266;28;20192;-63
2023/10/02 08:19:01;;;;;;;0.50;0.50;;;28.40;87.50;;;;;;5056316;28;20402;-68
2023/10/02 08:21:37;;;;;;;0.67;0.67;;;28.70;86.70;;;;;;5053199;28;20383;-64
2023/10/02 08:24:10;;;;;;;0.87;0.87;;;29.10;86.30;;;;;;5072757;28;20775;-69
2023/10/02 08:26:40;;;;;;;0.80;0.80;;;29.40;84.70;;;;;;5073254;28;20414;-69
2023/10/02 08:29:10;;;;;;;0.30;0.30;;;29.60;84.20;;;;;;5068736;28;20408;-62
2023/10/02 08:31:42;;;;;;;0.60;0.60;;;30.00;82.70;;;;;;5071477;28;20381;-67
2023/10/02 08:34:13;;;;;;;0.50;0.50;;;30.40;81.60;;;;;;5052872;28;20375;-67
2023/10/02 08:36:42;;;;;;;8.63;0.70;;;30.60;80.30;;;;;;5060914;28;20456;-61
2023/10/02 08:39:08;;;;;;;1.00;1.00;;;30.90;78.80;;;;;;5069264;28;20400;-68
2023/10/02 08:41:43;;;;;;;1.00;0.60;;;31.10;78.50;;;;;;5066319;28;20883;-62
2023/10/02 08:44:10;;;;;;;0.30;0.30;;;31.40;77.80;;;;;;5061276;28;20480;-67
2023/10/02 08:46:36;;;;;;;0.50;0.50;;;31.30;76.90;;;;;;5054575;28;20452;-61
2023/10/02 08:49:03;;;;;;;0.37;0.37;;;31.40;76.40;;;;;;5055349;28;20416;-62
2023/10/02 08:51:36;;;;;;;1.23;0.80;;;31.70;75.80;;;;;;5065842;28;20177;-64
2023/10/02 08:54:05;;;;;;;0.53;0.53;;;32.10;74.60;;;;;;5066181;28;20426;-62
2023/10/02 08:56:44;;;;;;;0.90;0.73;;;32.10;74.80;;;;;;5072571;28;20470;-67
2023/10/02 08:59:18;;;;;;;0.90;0.90;;;32.40;73.40;;;;;;5073012;28;20388;-68
2023/10/02 09:01:48;;;;;;;0.33;0.33;;;32.90;71.60;;;;;;5073175;28;20433;-68
2023/10/02 09:04:22;;;;;;;0.77;0.77;;;33.40;70.40;;;;;;5067792;28;20443;-69
2023/10/02 09:06:53;;;;;;;0.67;0.67;;;33.80;70.00;;;;;;5052895;28;20454;-68
2023/10/02 09:11:52;;;;;;;0.77;0.77;;;34.30;67.60;;;;;;5077392;28;20395;-69
2023/10/02 09:16:46;;;;;;;0.70;0.70;;;34.10;68.70;;;;;;5076995;28;20452;-69
2023/10/02 09:19:28;;;;;;;1.13;0.83;;;34.40;65.80;;;;;;5075644;28;20407;-64
2023/10/02 09:22:07;;;;;;;1.67;1.57;;;34.80;66.80;;;;;;5076946;28;20418;-68
2023/10/02 09:24:37;;;;;;;1.70;0.90;;;35.30;64.40;;;;;;5075703;28;20451;-64
2023/10/02 09:30:16;;;;;;;0.60;0.60;;;35.70;63.30;;;;;;5056092;28;20419;-68
2023/10/02 09:32:51;;;;;;;0.70;0.70;;;35.30;64.00;;;;;;5071880;28;20928;-64
2023/10/02 09:38:04;;;;;;;0.63;0.63;;;35.10;64.00;;;;;;5072993;28;20415;-67
2023/10/02 09:43:27;;;;;;;2.23;1.07;;;35.50;62.70;;;;;;5056696;28;20406;-64
2023/10/02 09:45:55;;;;;;;0.73;0.50;;;35.60;62.20;;;;;;5055714;28;20443;-65
2023/10/02 09:48:53;;;;;;;1.00;0.90;;;35.80;61.90;;;;;;5059667;28;20477;-68
2023/10/02 09:51:30;;;;;;;0.70;0.70;;;36.00;61.90;;;;;;5076439;28;20425;-64
2023/10/02 09:54:08;;;;;;;0.80;0.80;;;35.70;61.50;;;;;;5069546;28;20509;-65
2023/10/02 09:56:52;;;;;;;0.60;0.60;;;35.60;61.50;;;;;;5076065;28;20431;-64
2023/10/02 09:59:24;;;;;;;0.67;0.67;;;35.50;63.10;;;;;;5076653;28;20399;-64
2023/10/02 10:02:08;;;;;;;0.73;0.73;;;35.40;62.80;;;;;;5064680;28;20469;-65
2023/10/02 10:10:57;;;;;;;0.60;0.50;;;35.00;62.70;;;;;;5062216;28;20412;-67
2023/10/02 10:13:36;;;;;;;0.83;0.83;;;35.10;61.60;;;;;;5055846;28;20426;-67
2023/10/02 10:16:20;;;;;;;0.70;0.70;;;35.10;62.50;;;;;;5055424;28;20456;-63
2023/10/02 10:19:41;;;;;;;1.03;1.03;;;35.00;62.90;;;;;;5056283;28;20419;-66
2023/10/02 10:21:57;;;;;;;0.70;0.70;;;34.50;61.80;;;;;;5047479;28;20918;-68
2023/10/02 10:24:56;;;;;;;0.40;0.40;;;34.30;62.90;;;;;;5055423;28;20763;-64
2023/10/02 10:27:39;;;;;;;0.60;0.60;;;34.20;63.80;;;;;;5062883;28;20443;-64
2023/10/02 10:30:24;;;;;;;1.03;0.77;;;34.00;63.50;;;;;;5060909;28;20425;-68
2023/10/02 10:35:48;;;;;;;0.67;0.60;;;34.10;63.60;;;;;;5062660;28;20454;-65
2023/10/02 10:38:26;;;;;;;0.50;0.50;;;34.00;62.20;;;;;;5072251;28;20418;-66
2023/10/02 10:41:00;;;;;;;0.93;0.63;;;34.00;62.80;;;;;;5075182;28;20407;-65
2023/10/02 10:43:43;;;;;;;0.93;0.80;;;34.20;62.50;;;;;;5057142;28;20420;-67
2023/10/02 10:46:21;;;;;;;0.90;0.80;;;34.20;62.30;;;;;;5073662;28;20427;-65
2023/10/02 10:48:59;;;;;;;1.30;0.73;;;34.00;61.90;;;;;;5073345;28;20472;-64
2023/10/02 10:51:28;;;;;;;1.10;1.00;;;33.90;61.30;;;;;;5074538;28;20526;-64
2023/10/02 10:54:12;;;;;;;0.87;0.87;;;33.80;61.20;;;;;;5056561;28;20431;-66
2023/10/02 10:56:46;;;;;;;0.80;0.80;;;33.60;60.50;;;;;;5056835;28;20430;-67
2023/10/02 10:59:22;;;;;;;0.60;0.60;;;33.50;60.90;;;;;;5074945;28;20399;-64
2023/10/02 11:02:12;;;;;;;2.63;1.13;;;33.20;61.30;;;;;;5074669;28;20444;-66
2023/10/02 11:04:48;;;;;;;1.67;0.97;;;32.90;62.50;;;;;;5074553;28;20395;-67
2023/10/02 11:07:23;;;;;;;0.40;0.40;;;32.30;62.00;;;;;;5056096;28;20435;-63
2023/10/02 11:10:15;;;;;;;1.27;1.17;;;31.60;62.20;;;;;;5054800;28;20888;-63
2023/10/02 11:12:55;;;;;;;1.03;0.93;;;30.70;63.80;;;;;;5054714;28;20370;-62
2023/10/02 11:18:20;;;;;;;0.60;0.60;;;29.30;68.00;;;;;;5054701;28;20400;-67
2023/10/02 11:20:59;;;;;;;1.10;1.07;;;29.00;68.50;;;;;;5062473;28;20397;-63
2023/10/02 11:23:38;;;;;;;0.30;0.30;;;28.40;70.10;;;;;;5074318;28;20411;-67
2023/10/02 11:26:11;;;;;;;0.40;0.40;;;28.00;72.60;;;;;;5073917;28;20517;-63
2023/10/02 11:28:37;;;;;;;0.30;0.20;;;27.80;72.50;;;;;;5074402;28;20867;-63
2023/10/02 11:31:45;;;;;;;0.40;0.30;;;27.50;74.10;;;;;;5063992;28;20450;-67
2023/10/02 11:34:11;;;;;;;0.33;0.33;;;27.30;72.90;;;;;;5046617;28;20936;-64
2023/10/02 11:36:39;;;;;;;0.60;0.60;;;27.10;72.90;;;;;;5066506;28;20411;-68
2023/10/02 11:39:09;;;;;;;1.47;1.27;;;27.00;73.40;;;;;;5073861;28;20463;-63
2023/10/02 11:41:39;;;;;;;0.97;0.97;;;26.90;74.50;;;;;;5073836;28;20406;-67
2023/10/02 11:44:10;;;;;;;0.60;0.60;;;26.90;75.50;;;;;;5073379;28;20424;-63
2023/10/02 11:46:36;;;;;;;0.93;0.93;;;26.80;75.50;;;;;;5073438;28;20436;-67
2023/10/02 11:49:02;;;;;;;1.13;0.77;;;26.80;76.20;;;;;;5056005;28;20424;-63
2023/10/02 11:51:31;;;;;;;0.53;0.53;;;26.70;76.30;;;;;;5059881;28;20399;-63
2023/10/02 11:53:57;;;;;;;0.97;0.90;;;26.80;75.70;;;;;;5053576;28;20941;-67
2023/10/02 11:56:24;;;;;;;0.40;0.37;;;26.80;76.10;;;;;;5053804;28;20477;-65
2023/10/02 11:58:52;;;;;;;0.30;0.30;;;26.90;76.70;;;;;;5035820;28;20387;-67
2023/10/02 12:01:21;;;;;;;0.33;0.33;;;26.80;75.40;;;;;;5053621;28;20398;-68
2023/10/02 12:03:48;;;;;;;0.97;0.93;;;26.80;74.90;;;;;;5053396;28;20410;-68
2023/10/02 12:06:16;;;;;;;1.53;1.30;;;26.70;75.00;;;;;;5066629;28;20509;-66
2023/10/02 12:08:49;;;;;;;1.73;0.83;;;26.80;75.50;;;;;;5073029;28;20488;-65
2023/10/02 12:11:14;;;;;;;0.80;0.80;;;26.90;76.20;;;;;;5073719;28;20408;-68
2023/10/02 12:13:42;;;;;;;0.30;0.20;;;26.90;75.50;;;;;;5073539;28;20393;-67
2023/10/02 12:16:11;;;;;;;0.40;0.40;;;26.90;74.90;;;;;;5073464;28;20209;-67
2023/10/02 12:18:37;;;;;;;1.17;0.57;;;26.90;73.10;;;;;;5065150;28;20424;-64
2023/10/02 12:21:08;;;;;;;2.00;1.90;;;27.00;73.00;;;;;;5054631;28;20397;-66
2023/10/02 12:23:39;;;;;;;1.07;0.97;;;27.00;72.10;;;;;;5054523;28;20407;-67
2023/10/02 12:26:05;;;;;;;1.07;1.07;;;27.10;72.20;;;;;;5053661;28;20499;-64
2023/10/02 12:28:32;;;;;;;0.93;0.93;;;27.10;72.10;;;;;;5053583;28;20401;-65
2023/10/02 12:30:59;;;;;;;1.00;1.00;;;27.10;72.20;;;;;;5056401;28;20439;-64
2023/10/02 12:33:25;;;;;;;2.20;0.80;;;27.10;72.00;;;;;;5072753;28;20430;-64
2023/10/02 12:35:54;;;;;;;0.93;0.67;;;27.10;72.20;;;;;;5072670;28;20450;-66
2023/10/02 12:38:24;;;;;;;0.30;0.30;;;27.20;68.40;;;;;;5073751;28;20174;-69
2023/10/02 12:40:51;;;;;;;1.17;0.50;;;27.20;68.40;;;;;;5073337;28;20413;-68
2023/10/02 12:43:17;;;;;;;1.47;1.37;;;27.20;69.20;;;;;;5072260;28;20387;-68
2023/10/02 12:45:43;;;;;;;1.13;0.67;;;27.30;70.10;;;;;;5070913;28;20950;-68
2023/10/02 12:48:09;;;;;;;0.90;0.90;;;27.30;67.10;;;;;;5073468;28;20382;-68
2023/10/02 12:50:41;;;;;;;5.20;0.90;;;27.40;65.30;;;;;;5073155;28;20163;-68
2023/10/02 12:53:11;;;;;;;0.80;0.70;;;27.50;65.40;;;;;;5073101;28;20486;-69
2023/10/02 12:55:38;;;;;;;0.73;0.73;;;27.50;66.10;;;;;;5071691;28;20442;-59
2023/10/02 12:58:04;;;;;;;0.67;0.50;;;27.60;66.60;;;;;;5072605;28;20957;-59
2023/10/02 13:00:33;;;;;;;0.57;0.57;;;27.70;66.00;;;;;;5068337;28;20501;-62
2023/10/02 13:02:59;;;;;;;1.73;1.63;;;27.70;65.90;;;;;;5052787;28;20242;-61
2023/10/02 13:05:28;;;;;;;0.70;0.70;;;27.80;66.70;;;;;;5052693;28;20537;-61
2023/10/02 13:07:57;;;;;;;0.63;0.63;;;27.80;66.00;;;;;;5052753;28;20283;-61
2023/10/02 13:10:24;;;;;;;0.43;0.43;;;27.80;64.30;;;;;;5052689;28;20420;-61
2023/10/02 13:12:49;;;;;;;0.87;0.87;;;27.70;63.00;;;;;;5052855;28;20417;-60
2023/10/02 13:15:16;;;;;;;0.70;0.63;;;27.70;64.20;;;;;;5055707;28;20445;-60
2023/10/02 13:17:42;;;;;;;1.30;0.77;;;27.70;64.40;;;;;;5072594;28;20174;-58
2023/10/02 13:20:10;;;;;;;1.37;1.17;;;27.70;64.50;;;;;;5054473;28;20439;-59
2023/10/02 13:22:36;;;;;;;0.87;0.87;;;27.60;64.30;;;;;;5072380;28;20441;-59
2023/10/02 13:25:05;;;;;;;0.70;0.70;;;27.60;64.50;;;;;;5072227;28;20497;-59
2023/10/02 13:27:32;;;;;;;1.00;0.60;;;27.60;63.30;;;;;;5072692;28;20487;-59
2023/10/02 13:29:58;;;;;;;0.60;0.60;;;27.60;62.80;;;;;;5071128;28;20400;-60
2023/10/02 13:32:26;;;;;;;0.60;0.50;;;27.60;63.20;;;;;;5072469;28;20425;-58
2023/10/02 13:34:54;;;;;;;1.23;1.17;;;27.60;63.70;;;;;;5072076;28;20459;-59
2023/10/02 13:37:20;;;;;;;0.87;0.77;;;27.60;63.70;;;;;;5072559;28;20403;-57
2023/10/02 13:39:48;;;;;;;1.87;1.80;;;27.60;62.10;;;;;;5072321;28;20494;-59
2023/10/02 13:42:17;;;;;;;0.60;0.60;;;27.50;62.60;;;;;;5072620;28;20373;-57
2023/10/02 13:44:43;;;;;;;0.47;0.47;;;27.50;63.30;;;;;;5068228;28;20421;-59
2023/10/02 13:47:09;;;;;;;2.73;1.17;;;27.50;63.60;;;;;;5052496;28;20410;-59
2023/10/02 13:49:34;;;;;;;0.67;0.53;;;27.60;62.80;;;;;;5052173;28;20414;-59
2023/10/02 13:52:00;;;;;;;1.90;1.03;;;27.50;61.90;;;;;;5052065;28;20580;-59
2023/10/02 13:54:26;;;;;;;0.67;0.30;;;27.60;62.60;;;;;;5053880;28;20180;-59
2023/10/02 13:56:52;;;;;;;1.53;1.43;;;27.60;61.90;;;;;;5055521;28;20211;-60
2023/10/02 13:59:17;;;;;;;0.70;0.70;;;27.70;61.30;;;;;;5057370;28;21001;-59
2023/10/02 14:01:46;;;;;;;1.30;1.27;;;27.70;61.40;;;;;;5064899;28;20177;-60
2023/10/02 14:04:11;;;;;;;0.33;0.33;;;27.70;60.80;;;;;;5055415;28;20513;-59
2023/10/02 14:06:37;;;;;;;0.30;0.30;;;27.70;60.20;;;;;;5055427;28;20425;-59
2023/10/02 14:09:10;;;;;;;0.30;0.30;;;27.70;60.20;;;;;;5055700;28;20229;-59
2023/10/02 14:11:36;;;;;;;0.53;0.53;;;27.70;59.90;;;;;;5055582;28;20254;-58
2023/10/02 14:14:02;;;;;;;1.77;1.77;;;27.70;60.30;;;;;;5056138;28;20406;-61
2023/10/02 14:16:27;;;;;;;1.30;0.93;;;27.60;61.30;;;;;;5072703;28;20434;-59
2023/10/02 14:18:56;;;;;;;0.93;0.93;;;27.70;61.40;;;;;;5075061;28;20179;-60
2023/10/02 14:21:23;;;;;;;1.60;0.80;;;27.60;62.40;;;;;;5075000;28;20174;-59
2023/10/02 14:23:52;;;;;;;0.63;0.63;;;27.60;62.00;;;;;;5075003;28;20396;-59
2023/10/02 14:26:19;;;;;;;0.30;0.30;;;27.60;62.00;;;;;;5075432;28;20410;-60
2023/10/02 14:28:46;;;;;;;0.30;0.30;;;27.60;61.30;;;;;;5056698;28;20437;-59
2023/10/02 14:31:21;;;;;;;0.40;0.30;;;27.50;61.90;;;;;;5074983;28;20396;-59
2023/10/02 14:33:46;;;;;;;0.80;0.67;;;27.50;61.30;;;;;;5074916;28;20387;-61
2023/10/02 14:36:12;;;;;;;0.50;0.30;;;27.40;60.90;;;;;;5075321;28;20465;-61
2023/10/02 14:38:39;;;;;;;0.70;0.70;;;27.40;60.80;;;;;;5075251;28;20173;-64
2023/10/02 14:41:09;;;;;;;0.50;0.30;;;27.30;60.90;;;;;;5075393;28;20646;-65
2023/10/02 14:43:35;;;;;;;1.70;1.60;;;27.40;63.90;;;;;;5058523;28;20399;-70
2023/10/02 14:46:01;;;;;;;0.83;0.60;;;27.30;64.90;;;;;;5054612;28;20761;-62
2023/10/02 14:48:28;;;;;;;0.80;0.40;;;27.30;66.00;;;;;;5055106;28;20178;-61
2023/10/02 14:50:55;;;;;;;2.50;0.77;;;27.30;66.70;;;;;;5055219;28;20388;-62
2023/10/02 14:53:21;;;;;;;0.47;0.47;;;27.20;67.70;;;;;;5055015;28;20411;-65
2023/10/02 14:55:48;;;;;;;1.90;1.00;;;27.20;68.80;;;;;;5036415;28;20440;-63
2023/10/02 14:58:18;;;;;;;0.80;0.50;;;27.20;70.40;;;;;;5069960;28;20464;-64
2023/10/02 15:00:47;;;;;;;0.57;0.57;;;27.20;71.10;;;;;;5056891;28;20380;-62
2023/10/02 15:03:14;;;;;;;0.50;0.50;;;27.20;72.30;;;;;;5074221;28;20378;-61
2023/10/02 15:05:42;;;;;;;0.50;0.50;;;27.10;72.90;;;;;;5073380;28;20427;-62
2023/10/02 15:08:12;;;;;;;0.30;0.30;;;27.10;73.10;;;;;;5074635;28;20515;-63
2023/10/02 15:10:42;;;;;;;1.90;1.80;;;27.00;73.80;;;;;;5074810;28;20432;-63
2023/10/02 15:13:09;;;;;;;0.60;0.60;;;27.00;74.30;;;;;;5057577;28;20448;-64
2023/10/02 15:15:34;;;;;;;0.50;0.50;;;27.00;74.20;;;;;;5053594;28;20458;-64
2023/10/02 15:18:07;;;;;;;1.17;0.50;;;26.90;74.40;;;;;;5055042;28;20400;-61
2023/10/02 15:20:35;;;;;;;0.70;0.70;;;26.90;74.40;;;;;;5054690;28;20169;-63
2023/10/02 15:23:01;;;;;;;1.90;0.73;;;26.80;75.50;;;;;;5054629;28;20367;-64
2023/10/02 15:25:30;;;;;;;0.60;0.60;;;26.80;75.20;;;;;;5053728;28;20432;-64
2023/10/02 15:28:00;;;;;;;0.30;0.30;;;26.70;75.50;;;;;;5070332;28;20808;-65
2023/10/02 15:30:25;;;;;;;1.10;0.87;;;26.70;75.90;;;;;;5074015;28;20461;-63
2023/10/02 15:32:56;;;;;;;0.63;0.40;;;26.70;75.80;;;;;;5073962;28;20494;-64
2023/10/02 15:35:23;;;;;;;0.40;0.40;;;26.60;75.90;;;;;;5073088;28;20209;-62
2023/10/02 15:37:54;;;;;;;0.60;0.40;;;26.60;76.30;;;;;;5073597;28;20447;-64
2023/10/02 15:40:23;;;;;;;0.50;0.50;;;26.50;76.40;;;;;;5074009;28;20400;-63
2023/10/02 15:42:51;;;;;;;1.97;1.17;;;26.40;76.60;;;;;;5073696;28;20378;-61
2023/10/02 15:45:19;;;;;;;0.60;0.60;;;26.40;77.10;;;;;;5073182;28;20433;-61
2023/10/02 15:47:57;;;;;;;0.30;0.30;;;26.30;76.70;;;;;;5073852;28;20809;-62
2023/10/02 15:50:26;;;;;;;0.50;0.50;;;26.30;76.80;;;;;;5068792;28;20420;-62
2023/10/02 15:52:53;;;;;;;0.30;0.30;;;26.20;77.00;;;;;;5053803;28;20416;-61
2023/10/02 15:55:20;;;;;;;0.40;0.40;;;26.10;77.50;;;;;;5052824;28;20459;-62
2023/10/02 15:57:50;;;;;;;4.70;0.80;;;26.00;77.80;;;;;;5053692;28;20966;-62
2023/10/02 16:00:21;;;;;;;0.37;0.37;;;26.00;78.30;;;;;;5053428;28;20470;-62
2023/10/02 16:02:55;;;;;;;0.40;0.37;;;25.90;78.50;;;;;;5060167;28;20407;-61
2023/10/02 16:05:21;;;;;;;2.10;1.13;;;25.80;78.30;;;;;;5072706;28;20402;-62
2023/10/02 16:07:51;;;;;;;0.30;0.30;;;25.70;78.30;;;;;;5073582;28;20522;-61
2023/10/02 16:10:22;;;;;;;1.03;0.90;;;25.70;78.40;;;;;;5073243;28;20505;-62
2023/10/02 16:12:52;;;;;;;0.40;0.40;;;25.60;78.20;;;;;;5073679;28;20828;-60
2023/10/02 16:15:34;;;;;;;0.50;0.50;;;25.60;78.40;;;;;;5072637;28;20834;-61
2023/10/02 16:18:00;;;;;;;0.63;0.63;;;25.50;78.40;;;;;;5061282;28;20485;-61
2023/10/02 16:20:29;;;;;;;0.40;0.40;;;25.30;78.60;;;;;;5052491;28;20865;-62
2023/10/02 16:23:02;;;;;;;0.30;0.20;;;25.30;79.10;;;;;;5053279;28;20905;-62
2023/10/02 16:25:28;;;;;;;0.30;0.30;;;25.10;79.40;;;;;;5052649;28;20837;-60
2023/10/02 16:27:54;;;;;;;0.80;0.50;;;25.00;79.50;;;;;;5053234;28;20443;-61
2023/10/02 16:30:25;;;;;;;0.30;0.30;;;24.90;79.70;;;;;;5053184;28;20810;-61
2023/10/02 16:32:54;;;;;;;0.30;0.30;;;24.80;79.70;;;;;;5065213;28;20401;-61
2023/10/02 16:35:28;;;;;;;1.20;1.10;;;24.70;79.80;;;;;;5072679;28;20451;-61
2023/10/02 16:37:54;;;;;;;0.30;0.30;;;24.60;79.70;;;;;;5073408;28;20888;-61
2023/10/02 16:40:20;;;;;;;0.80;0.80;;;24.50;79.70;;;;;;5073311;28;20378;-61
2023/10/02 16:42:46;;;;;;;2.93;1.27;;;24.40;79.70;;;;;;5073068;28;20653;-60
2023/10/02 16:45:15;;;;;;;0.40;0.40;;;24.30;79.80;;;;;;5072630;28;20414;-62
2023/10/02 16:47:42;;;;;;;0.77;0.77;;;24.10;80.00;;;;;;5059859;28;20183;-62
2023/10/02 16:50:12;;;;;;;0.80;0.50;;;24.00;80.10;;;;;;5052602;28;20848;-61
2023/10/02 16:52:43;;;;;;;0.33;0.33;;;23.90;80.40;;;;;;5052969;28;20415;-61
2023/10/02 16:55:29;;;;;;;2.40;0.97;;;23.80;80.50;;;;;;5052561;28;20466;-61
2023/10/02 16:57:56;;;;;;;0.50;0.50;;;23.70;80.40;;;;;;5052755;28;20413;-61
2023/10/02 17:00:22;;;;;;;2.30;0.60;;;23.60;80.60;;;;;;5052952;28;20415;-61
2023/10/02 17:02:48;;;;;;;0.30;0.30;;;23.50;81.50;;;;;;5053308;28;20434;-61
2023/10/02 17:05:18;;;;;;;6.23;0.80;;;23.40;82.90;;;;;;5052492;28;20411;-62
2023/10/02 17:07:46;;;;;;;0.40;0.40;;;23.30;84.30;;;;;;5052814;28;20461;-60
2023/10/02 17:10:16;;;;;;;0.50;0.50;;;23.20;84.00;;;;;;5052732;28;20463;-60
2023/10/02 17:12:47;;;;;;;0.30;0.30;;;23.10;83.40;;;;;;5053262;28;20410;-61
2023/10/02 17:15:15;;;;;;;0.40;0.40;;;23.00;83.60;;;;;;5055439;28;20462;-59
2023/10/02 17:17:41;;;;;;;0.37;0.33;;;22.90;84.00;;;;;;5072629;28;20457;-59
2023/10/02 17:20:09;;;;;;;0.30;0.30;;;22.80;84.20;;;;;;5072786;28;20417;-59
2023/10/02 17:22:39;;;;;;;0.30;0.30;;;22.60;84.30;;;;;;5072410;28;20411;-59
2023/10/02 17:25:09;;;;;;;0.80;0.80;;;22.50;84.50;;;;;;5072121;28;20445;-59
2023/10/02 17:27:39;;;;;;;1.33;1.23;;;22.40;84.70;;;;;;5072772;28;20422;-60
2023/10/02 17:30:06;;;;;;;0.60;0.60;;;22.30;86.80;;;;;;5070105;28;20936;-61
2023/10/02 17:32:34;;;;;;;0.50;0.40;;;22.20;88.40;;;;;;5056450;28;20985;-60
2023/10/02 17:35:03;;;;;;;0.50;0.50;;;22.10;89.80;;;;;;5055691;28;20455;-60
2023/10/02 17:37:29;;;;;;;0.30;0.20;;;22.00;90.30;;;;;;5056303;28;20401;-59
2023/10/02 17:39:54;;;;;;;1.13;0.73;;;21.90;91.00;;;;;;5056433;28;20485;-63
2023/10/02 17:42:20;;;;;;;0.50;0.40;;;21.70;91.60;;;;;;5056423;28;20410;-64
2023/10/02 17:44:49;;;;;;;0.80;0.80;;;21.60;92.00;;;;;;5060754;28;20185;-63
2023/10/02 17:47:17;;;;;;;0.77;0.77;;;21.50;92.30;;;;;;5076178;28;20821;-64
2023/10/02 17:49:43;;;;;;;1.13;1.13;;;21.50;92.70;;;;;;5075919;28;20445;-66
2023/10/02 17:52:11;;;;;;;0.47;0.47;;;21.30;93.00;;;;;;5076091;28;20489;-66
2023/10/02 17:54:39;;;;;;;1.60;1.23;;;21.20;93.40;;;;;;5057028;28;20429;-63
2023/10/02 17:57:05;;;;;;;0.63;0.50;;;21.10;94.20;;;;;;5075995;28;20399;-63
2023/10/02 17:59:31;;;;;;;0.30;0.20;;;20.90;94.80;;;;;;5070859;28;20427;-64